Time;durP1;ratioP1;P1;durP2;ratioP2;P2;SDS_P1;SDS_P2;PMS_P1;PMS_P2;Temp;Humidity;BMP_temperature;BMP_pressure;BME280_temperature;BME280_humidity;BME280_pressure;Samples;Min_cycle;Max_cycle;Signal;HPM_P1;HPM_P2
2024/03/29 00:01:47;;;;;;;6.32;2.53;;;;;;;11.97;48.38;93682.84;5085868;28;20097;-80
2024/03/29 00:04:13;;;;;;;6.75;2.03;;;;;;;11.97;48.63;93674.84;5102657;28;20030;-81
2024/03/29 00:06:39;;;;;;;7.80;2.20;;;;;;;11.93;48.92;93688.03;5103833;28;20024;-81
2024/03/29 00:09:05;;;;;;;9.38;2.47;;;;;;;11.90;49.24;93683.34;5103807;28;20200;-80
2024/03/29 00:11:31;;;;;;;7.50;2.47;;;;;;;11.87;49.68;93683.19;5103622;28;20020;-81
2024/03/29 00:13:56;;;;;;;7.82;2.13;;;;;;;11.82;49.80;93692.97;5103722;28;20027;-80
2024/03/29 00:16:25;;;;;;;10.25;2.35;;;;;;;11.77;49.80;93700.38;5103617;28;20310;-81
2024/03/29 00:18:51;;;;;;;8.52;2.15;;;;;;;11.74;50.03;93701.00;5085618;28;20259;-81
2024/03/29 00:21:16;;;;;;;7.50;2.65;;;;;;;11.72;50.25;93704.00;5103531;28;20032;-81
2024/03/29 00:23:43;;;;;;;8.48;2.22;;;;;;;11.69;50.21;93710.00;5103548;28;20032;-81
2024/03/29 00:26:09;;;;;;;15.13;2.20;;;;;;;11.61;50.26;93706.25;5085301;28;20081;-81
2024/03/29 00:28:34;;;;;;;4.53;1.80;;;;;;;11.56;50.21;93716.34;5103490;28;20048;-81
2024/03/29 00:31:00;;;;;;;4.30;1.65;;;;;;;11.55;50.19;93722.78;5085251;28;20027;-80
2024/03/29 00:33:25;;;;;;;7.75;1.58;;;;;;;11.53;50.34;93717.78;5103301;28;20031;-80
2024/03/29 00:35:50;;;;;;;13.95;2.88;;;;;;;11.44;50.49;93717.81;5103304;28;20095;-80
2024/03/29 00:38:16;;;;;;;10.88;3.55;;;;;;;11.42;50.37;93721.94;5103448;28;20100;-80
2024/03/29 00:40:41;;;;;;;14.80;3.47;;;;;;;11.34;50.70;93717.41;5103252;28;20234;-80
2024/03/29 00:43:07;;;;;;;9.48;3.33;;;;;;;11.35;50.65;93725.06;5103392;28;20102;-79
2024/03/29 00:45:33;;;;;;;15.07;3.28;;;;;;;11.30;51.16;93722.59;5103167;28;20043;-80
2024/03/29 00:47:58;;;;;;;13.38;3.75;;;;;;;11.30;51.55;93716.47;5103379;28;20032;-79
2024/03/29 00:50:23;;;;;;;12.15;4.15;;;;;;;11.34;51.58;93720.84;5102973;28;20032;-79
2024/03/29 00:52:49;;;;;;;12.15;3.42;;;;;;;11.25;51.96;93714.75;5103109;28;20547;-79
2024/03/29 00:55:15;;;;;;;11.93;3.75;;;;;;;11.21;52.09;93722.63;5103020;28;20035;-80
2024/03/29 00:57:41;;;;;;;11.18;2.97;;;;;;;11.16;52.09;93730.03;5102755;28;20043;-79
2024/03/29 01:00:07;;;;;;;12.38;3.35;;;;;;;11.14;52.10;93732.22;5103209;28;20095;-79
2024/03/29 01:02:32;;;;;;;16.10;2.92;;;;;;;11.14;51.88;93726.91;5102824;28;20115;-80
2024/03/29 01:04:58;;;;;;;14.02;2.83;;;;;;;11.16;52.00;93735.38;5102919;28;20020;-80
2024/03/29 01:07:23;;;;;;;13.35;2.88;;;;;;;11.10;52.00;93721.41;5084888;28;20303;-80
2024/03/29 01:09:48;;;;;;;10.77;2.75;;;;;;;11.05;51.81;93740.25;5103081;28;20096;-80
2024/03/29 01:12:14;;;;;;;16.85;3.40;;;;;;;11.01;52.42;93745.44;5102895;28;20091;-79
2024/03/29 01:14:39;;;;;;;11.10;3.35;;;;;;;11.00;52.95;93749.19;5102484;28;20019;-80
2024/03/29 01:17:06;;;;;;;6.22;2.58;;;;;;;10.97;52.88;93739.19;5102951;28;20023;-80
2024/03/29 01:19:32;;;;;;;6.18;1.90;;;;;;;10.99;52.48;93758.31;5102940;28;20028;-80
2024/03/29 01:21:57;;;;;;;5.68;1.98;;;;;;;10.96;52.51;93753.59;5102786;28;20089;-79
2024/03/29 01:24:23;;;;;;;6.80;1.75;;;;;;;10.97;52.53;93751.72;5102737;28;20020;-80
2024/03/29 01:26:48;;;;;;;6.60;2.20;;;;;;;10.98;52.35;93758.63;5102936;28;20083;-80
2024/03/29 01:29:13;;;;;;;9.63;2.10;;;;;;;10.95;52.63;93746.72;5102806;28;20262;-79
2024/03/29 01:31:39;;;;;;;9.38;2.70;;;;;;;10.96;53.19;93752.81;5102625;28;20020;-80
2024/03/29 01:34:04;;;;;;;8.98;2.70;;;;;;;10.92;54.28;93751.91;5102365;28;20117;-79
2024/03/29 01:36:30;;;;;;;14.43;3.55;;;;;;;10.73;54.47;93737.03;5102659;28;20017;-79
2024/03/29 01:38:56;;;;;;;5.13;1.98;;;;;;;10.66;54.42;93746.59;5084482;28;20027;-79
2024/03/29 01:41:27;;;;;;;7.35;2.67;;;;;;;10.55;53.85;93746.94;5102569;28;20024;-79
2024/03/29 01:43:54;;;;;;;6.03;1.90;;;;;;;10.59;53.52;93745.19;5102308;28;20027;-80
2024/03/29 01:46:21;;;;;;;5.55;1.73;;;;;;;10.59;53.67;93755.09;5102587;28;20218;-80
2024/03/29 01:48:47;;;;;;;5.93;1.80;;;;;;;10.60;53.77;93765.44;5102463;28;20020;-80
2024/03/29 01:51:15;;;;;;;7.70;1.77;;;;;;;10.67;53.63;93772.19;5102239;28;20024;-81
2024/03/29 01:53:41;;;;;;;4.10;1.50;;;;;;;10.67;53.54;93756.97;5102500;28;20039;-79
2024/03/29 01:56:08;;;;;;;7.00;2.05;;;;;;;10.68;53.93;93785.16;5084344;28;20338;-80
2024/03/29 01:58:34;;;;;;;5.45;2.15;;;;;;;10.69;54.04;93781.41;5102345;28;20262;-81
2024/03/29 02:01:00;;;;;;;9.55;1.92;;;;;;;10.63;54.53;93786.13;5102569;28;20091;-80
2024/03/29 02:03:27;;;;;;;4.47;1.75;;;;;;;10.66;54.60;93799.91;5102356;28;20085;-81
2024/03/29 02:05:53;;;;;;;8.38;2.17;;;;;;;10.67;54.57;93799.59;5102411;28;20100;-80
2024/03/29 02:08:19;;;;;;;7.10;2.00;;;;;;;10.64;54.17;93803.69;5102300;28;20028;-81
2024/03/29 02:10:47;;;;;;;6.35;2.13;;;;;;;10.63;54.43;93820.75;5102381;28;20267;-80
2024/03/29 02:13:13;;;;;;;6.22;2.55;;;;;;;10.60;54.34;93834.75;5102128;28;20027;-80
2024/03/29 02:15:42;;;;;;;5.43;2.55;;;;;;;10.61;54.03;93836.28;5102046;28;20093;-79
2024/03/29 02:18:08;;;;;;;7.97;2.10;;;;;;;10.61;54.09;93830.19;5102021;28;20023;-80
2024/03/29 02:20:36;;;;;;;10.02;2.53;;;;;;;10.57;54.33;93853.22;5102033;28;20012;-80
2024/03/29 02:23:10;;;;;;;8.10;1.80;;;;;;;10.56;55.00;93856.97;5102067;28;20036;-80
2024/03/29 02:25:36;;;;;;;8.02;1.73;;;;;;;10.49;54.63;93864.66;5101818;28;20303;-80
2024/03/29 02:28:05;;;;;;;6.60;1.50;;;;;;;10.45;54.18;93864.50;5104775;28;20038;-81
2024/03/29 02:30:31;;;;;;;4.10;1.63;;;;;;;10.43;54.70;93864.03;5105538;28;20303;-80
2024/03/29 02:32:59;;;;;;;6.00;1.67;;;;;;;10.38;55.16;93862.28;5087550;28;20035;-80
2024/03/29 02:35:26;;;;;;;5.05;1.63;;;;;;;10.33;55.99;93869.66;5105274;28;20016;-80
2024/03/29 02:37:52;;;;;;;7.57;1.52;;;;;;;10.22;55.98;93885.88;5105345;28;20020;-79
2024/03/29 02:40:17;;;;;;;4.35;1.10;;;;;;;10.20;55.49;93885.41;5105366;28;20012;-79
2024/03/29 02:42:43;;;;;;;5.30;1.15;;;;;;;10.20;55.25;93880.09;5105254;28;20020;-79
2024/03/29 02:45:08;;;;;;;2.90;1.02;;;;;;;10.19;55.40;93897.16;5105294;28;20020;-79
2024/03/29 02:47:34;;;;;;;3.28;0.70;;;;;;;10.23;54.76;93887.44;5105298;28;20016;-79
2024/03/29 02:49:59;;;;;;;4.95;1.20;;;;;;;10.25;54.95;93889.81;5105329;28;20023;-79
2024/03/29 02:52:25;;;;;;;5.63;1.10;;;;;;;10.23;55.73;93881.34;5105140;28;20012;-79
2024/03/29 02:54:50;;;;;;;7.30;1.48;;;;;;;10.22;55.83;93895.78;5105237;28;20089;-79
2024/03/29 02:57:16;;;;;;;8.30;1.40;;;;;;;10.19;56.13;93897.16;5105126;28;20107;-79
2024/03/29 02:59:41;;;;;;;5.22;0.90;;;;;;;10.15;56.18;93885.53;5104824;28;20051;-79
2024/03/29 03:02:07;;;;;;;4.10;1.77;;;;;;;10.13;56.11;93893.06;5104975;28;20020;-79
2024/03/29 03:04:33;;;;;;;3.38;1.45;;;;;;;10.09;56.73;93888.66;5105030;28;20019;-79
2024/03/29 03:10:55;;;;;;;4.35;1.13;;;;;;;10.06;56.90;93892.75;5105014;28;20367;-79
2024/03/29 03:12:31;;;;;;;5.93;1.73;;;;;;;9.79;57.83;93899.84;5105015;28;20096;-79
2024/03/29 03:14:58;;;;;;;4.10;1.33;;;;;;;9.79;57.19;93905.16;5086693;28;20040;-81
2024/03/29 03:17:24;;;;;;;5.35;0.90;;;;;;;9.80;56.37;93904.06;5104631;28;20024;-81
2024/03/29 03:19:51;;;;;;;3.30;1.13;;;;;;;9.82;56.39;93912.53;5104566;28;20345;-81
2024/03/29 03:22:17;;;;;;;5.05;0.90;;;;;;;9.86;55.30;93917.25;5104436;28;20035;-81
2024/03/29 03:24:42;;;;;;;6.55;1.10;;;;;;;9.97;55.00;93923.88;5104422;28;20107;-81
2024/03/29 03:27:08;;;;;;;2.72;0.95;;;;;;;10.07;54.23;93918.25;5104502;28;20027;-81
2024/03/29 03:29:33;;;;;;;4.32;1.13;;;;;;;10.16;54.02;93928.97;5086474;28;20068;-81
2024/03/29 03:31:58;;;;;;;4.70;1.02;;;;;;;10.21;53.92;93926.16;5086551;28;20211;-80
2024/03/29 03:34:25;;;;;;;10.40;1.10;;;;;;;10.24;53.42;93936.19;5104054;28;20027;-80
2024/03/29 03:36:50;;;;;;;3.17;1.08;;;;;;;10.28;53.62;93931.81;5086052;28;20149;-79
2024/03/29 03:39:15;;;;;;;3.13;1.00;;;;;;;10.30;53.41;93926.19;5103893;28;20020;-79
2024/03/29 03:41:41;;;;;;;6.75;1.05;;;;;;;10.40;52.87;93928.56;5104116;28;20031;-81
2024/03/29 03:44:06;;;;;;;2.65;0.73;;;;;;;10.44;52.53;93929.53;5104041;28;20024;-81
2024/03/29 03:46:31;;;;;;;12.48;0.90;;;;;;;10.46;53.13;93946.00;5103979;28;20103;-80
2024/03/29 03:48:57;;;;;;;3.78;1.30;;;;;;;10.51;53.61;93945.84;5104248;28;21385;-81
2024/03/29 03:51:22;;;;;;;4.75;1.15;;;;;;;10.53;54.05;93954.34;5104144;28;20218;-80
2024/03/29 03:53:48;;;;;;;5.13;1.63;;;;;;;10.55;54.44;93957.47;5103916;28;20028;-81
2024/03/29 03:56:13;;;;;;;4.05;1.50;;;;;;;10.54;54.69;93958.59;5103919;28;20028;-80
2024/03/29 03:58:39;;;;;;;5.53;1.33;;;;;;;10.49;55.01;93973.91;5103526;28;20038;-80
2024/03/29 04:01:05;;;;;;;5.93;1.52;;;;;;;10.47;55.16;93981.44;5103812;28;20054;-80
2024/03/29 04:03:34;;;;;;;6.82;1.73;;;;;;;10.42;55.48;93977.81;5103852;28;20024;-82
2024/03/29 04:06:03;;;;;;;7.97;1.60;;;;;;;10.37;56.14;93977.94;5085797;28;20020;-82
2024/03/29 04:08:28;;;;;;;8.23;3.38;;;;;;;10.23;56.06;93978.00;5103700;28;20039;-82
2024/03/29 04:10:54;;;;;;;6.72;2.35;;;;;;;10.19;55.89;93984.28;5103439;28;20307;-80
2024/03/29 04:13:19;;;;;;;4.93;2.22;;;;;;;10.13;56.02;93978.28;5103520;28;20061;-80
2024/03/29 04:15:44;;;;;;;7.75;2.15;;;;;;;10.11;56.24;93985.03;5103416;28;20034;-80
2024/03/29 04:18:10;;;;;;;5.57;1.83;;;;;;;10.03;56.62;93981.22;5103459;28;20381;-81
2024/03/29 04:20:35;;;;;;;4.15;1.63;;;;;;;10.04;56.53;93985.47;5103274;28;20012;-81
2024/03/29 04:23:04;;;;;;;4.40;1.08;;;;;;;10.04;56.77;93991.56;5085301;28;20235;-81
2024/03/29 04:25:29;;;;;;;3.90;1.42;;;;;;;10.07;56.82;93995.50;5103411;28;20044;-81
2024/03/29 04:27:55;;;;;;;12.07;1.77;;;;;;;10.06;56.78;94003.81;5103422;28;20306;-81
2024/03/29 04:30:20;;;;;;;5.55;1.38;;;;;;;10.04;56.84;94006.78;5103504;28;20024;-82
2024/03/29 04:32:45;;;;;;;6.50;1.95;;;;;;;10.01;56.88;94005.50;5103125;28;20374;-82
2024/03/29 04:35:11;;;;;;;12.82;3.17;;;;;;;10.07;56.82;94016.78;5103085;28;20024;-81
2024/03/29 04:37:36;;;;;;;7.78;1.73;;;;;;;10.04;56.50;94018.19;5102930;28;20095;-80
2024/03/29 04:40:03;;;;;;;10.38;1.60;;;;;;;10.06;57.03;94022.44;5103204;28;20032;-80
2024/03/29 04:42:29;;;;;;;7.45;1.77;;;;;;;10.07;56.69;94024.00;5103075;28;20024;-80
2024/03/29 04:44:54;;;;;;;4.97;1.70;;;;;;;10.13;56.68;94034.22;5101830;28;20027;-80
2024/03/29 04:47:19;;;;;;;9.88;1.50;;;;;;;10.13;57.00;94041.44;5102934;28;20340;-79
2024/03/29 04:49:45;;;;;;;4.35;1.45;;;;;;;10.16;56.80;94052.25;5102139;28;20024;-79
2024/03/29 04:52:10;;;;;;;7.88;1.75;;;;;;;10.20;56.38;94047.91;5102793;28;20126;-79
2024/03/29 04:54:36;;;;;;;4.45;1.45;;;;;;;10.28;56.38;94048.22;5102961;28;20377;-79
2024/03/29 04:57:03;;;;;;;13.80;2.83;;;;;;;10.34;56.39;94050.50;5102848;28;20101;-79
2024/03/29 04:59:29;;;;;;;8.55;2.97;;;;;;;10.39;56.12;94049.59;5102494;28;20026;-79
2024/03/29 05:01:56;;;;;;;9.35;4.03;;;;;;;10.43;55.45;94069.97;5102368;28;20069;-80
2024/03/29 05:04:25;;;;;;;22.98;3.88;;;;;;;10.56;55.52;94068.31;5102561;28;20030;-80
2024/03/29 05:06:59;;;;;;;8.95;3.60;;;;;;;10.69;55.00;94065.88;5102696;28;20028;-80
2024/03/29 05:09:25;;;;;;;7.95;2.85;;;;;;;10.79;54.54;94063.69;5102420;28;20016;-80
2024/03/29 05:11:51;;;;;;;7.85;2.70;;;;;;;10.94;53.42;94062.47;5102829;28;20099;-80
2024/03/29 05:14:18;;;;;;;9.00;2.22;;;;;;;11.11;52.77;94066.28;5102460;28;20028;-81
2024/03/29 05:16:48;;;;;;;9.57;2.15;;;;;;;11.27;52.18;94075.41;5102599;28;20024;-80
2024/03/29 05:19:14;;;;;;;6.88;1.02;;;;;;;11.47;50.48;94074.03;5102407;28;20020;-79
2024/03/29 05:21:41;;;;;;;13.73;2.08;;;;;;;11.62;50.70;94072.78;5102306;28;20036;-79
2024/03/29 05:24:17;;;;;;;5.05;2.03;;;;;;;11.76;50.79;94067.28;5102451;28;20020;-79
2024/03/29 05:26:42;;;;;;;9.63;1.17;;;;;;;11.94;49.76;94078.78;5102640;28;20038;-78
2024/03/29 05:29:08;;;;;;;12.07;1.38;;;;;;;12.12;49.31;94085.66;5102377;28;20314;-79
2024/03/29 05:31:33;;;;;;;11.48;2.35;;;;;;;12.27;49.33;94087.03;5102491;28;20196;-79
2024/03/29 05:34:00;;;;;;;17.27;2.10;;;;;;;12.38;49.39;94088.28;5084480;28;20030;-79
2024/03/29 05:36:25;;;;;;;19.85;2.25;;;;;;;12.46;49.15;94092.06;5102444;28;20106;-79
2024/03/29 05:38:51;;;;;;;13.45;1.70;;;;;;;12.52;49.66;94098.81;5102367;28;20107;-80
2024/03/29 05:41:16;;;;;;;7.80;1.63;;;;;;;12.56;48.77;94097.06;5102495;28;20024;-80
2024/03/29 05:43:41;;;;;;;18.73;2.53;;;;;;;12.61;48.92;94104.13;5102460;28;20023;-80
2024/03/29 05:46:07;;;;;;;14.50;2.40;;;;;;;12.66;48.54;94098.59;5102305;28;20023;-80
2024/03/29 05:48:32;;;;;;;24.38;3.72;;;;;;;12.68;48.63;94091.06;5102351;28;20039;-80
2024/03/29 05:50:58;;;;;;;16.08;2.33;;;;;;;12.75;48.50;94098.56;5102156;28;20034;-79
2024/03/29 05:53:24;;;;;;;15.65;3.75;;;;;;;12.84;48.57;94089.41;5102259;28;20036;-80
2024/03/29 05:55:49;;;;;;;17.27;2.45;;;;;;;12.88;48.02;94081.50;5102146;28;20024;-79
2024/03/29 05:58:17;;;;;;;13.40;2.28;;;;;;;12.96;47.27;94093.28;5102198;28;20048;-80
2024/03/29 06:00:43;;;;;;;13.32;1.60;;;;;;;13.02;47.22;94084.75;5102900;28;20023;-81
2024/03/29 06:03:09;;;;;;;11.57;1.60;;;;;;;12.99;47.11;94095.34;5105891;28;20032;-81
2024/03/29 06:05:34;;;;;;;12.80;2.05;;;;;;;13.09;46.46;94097.66;5105986;28;20345;-81
2024/03/29 06:08:00;;;;;;;16.92;1.65;;;;;;;13.17;45.94;94102.16;5106528;28;20020;-79
2024/03/29 06:10:25;;;;;;;14.05;2.03;;;;;;;13.23;45.39;94105.44;5105707;28;20278;-79
2024/03/29 06:12:51;;;;;;;5.85;1.77;;;;;;;13.28;45.87;94105.25;5105912;28;20047;-78
2024/03/29 06:18:00;;;;;;;9.73;1.10;;;;;;;13.44;45.45;94122.34;5105857;28;20026;-79
2024/03/29 06:20:26;;;;;;;7.47;1.65;;;;;;;13.54;44.90;94105.13;5105816;28;20020;-81
2024/03/29 06:22:51;;;;;;;11.13;1.48;;;;;;;13.57;46.09;94115.16;5105826;28;20310;-75
2024/03/29 06:25:16;;;;;;;6.90;1.58;;;;;;;13.73;44.62;94103.91;5106047;28;20318;-82
2024/03/29 06:27:47;;;;;;;3.35;0.88;;;;;;;13.78;44.79;94114.41;5087720;28;20027;-81
2024/03/29 06:30:13;;;;;;;8.05;1.08;;;;;;;13.91;44.59;94123.31;5104661;28;20092;-82
2024/03/29 06:32:39;;;;;;;5.53;1.10;;;;;;;14.01;44.05;94117.56;5105871;28;20226;-82
2024/03/29 06:35:05;;;;;;;8.68;1.33;;;;;;;14.09;43.61;94124.72;5105810;28;20016;-81
2024/03/29 06:37:31;;;;;;;6.30;0.70;;;;;;;14.18;43.14;94125.44;5088016;28;20195;-81
2024/03/29 06:39:56;;;;;;;3.33;1.02;;;;;;;14.19;42.61;94118.97;5103877;28;20019;-82
2024/03/29 06:42:22;;;;;;;3.40;1.40;;;;;;;14.31;42.53;94117.44;5103873;28;20022;-81
2024/03/29 06:44:48;;;;;;;8.05;1.23;;;;;;;14.40;42.75;94118.16;5103729;28;20020;-82
2024/03/29 06:47:13;;;;;;;5.35;0.98;;;;;;;14.47;42.98;94123.78;5103927;28;20024;-82
2024/03/29 06:49:39;;;;;;;5.45;0.90;;;;;;;14.52;42.65;94118.19;5103739;28;20087;-80
2024/03/29 06:52:04;;;;;;;4.68;1.00;;;;;;;14.60;42.44;94124.63;5104130;28;20417;-80
2024/03/29 06:54:32;;;;;;;3.60;1.10;;;;;;;14.60;41.49;94117.34;5105255;28;20024;-82
2024/03/29 06:56:57;;;;;;;9.18;1.58;;;;;;;14.74;42.44;94116.25;5105007;28;20039;-81
2024/03/29 06:59:23;;;;;;;9.73;0.90;;;;;;;14.80;41.70;94125.66;5087369;28;20261;-81
2024/03/29 07:01:52;;;;;;;9.95;1.13;;;;;;;14.85;41.74;94120.84;5105030;28;20028;-82
2024/03/29 07:04:21;;;;;;;10.38;1.17;;;;;;;14.94;41.02;94136.06;5105279;28;20040;-81
2024/03/29 07:06:47;;;;;;;6.55;1.08;;;;;;;14.97;41.00;94136.19;5086923;28;20059;-82
2024/03/29 07:09:14;;;;;;;11.30;1.23;;;;;;;15.02;41.34;94127.13;5105086;28;20028;-82
2024/03/29 07:11:39;;;;;;;5.70;1.00;;;;;;;15.09;41.67;94130.06;5104722;28;20024;-82
2024/03/29 07:14:05;;;;;;;4.75;1.33;;;;;;;15.09;40.77;94135.44;5104667;28;20287;-83
2024/03/29 07:16:30;;;;;;;6.90;1.50;;;;;;;15.18;41.40;94144.16;5105120;28;20024;-82
2024/03/29 07:18:56;;;;;;;3.38;0.98;;;;;;;15.26;41.44;94142.47;5086822;28;20024;-82
2024/03/29 07:21:21;;;;;;;7.45;0.95;;;;;;;15.32;41.18;94145.72;5104670;28;20219;-82
2024/03/29 07:23:47;;;;;;;4.32;1.10;;;;;;;15.40;41.21;94145.59;5104724;28;20269;-81
2024/03/29 07:26:12;;;;;;;4.43;1.40;;;;;;;15.47;40.76;94147.75;5086776;28;20036;-81
2024/03/29 07:28:38;;;;;;;4.57;0.82;;;;;;;15.53;40.28;94142.91;5104446;28;20024;-79
2024/03/29 07:31:07;;;;;;;12.43;1.45;;;;;;;15.55;39.30;94144.16;5104676;28;20020;-81
2024/03/29 07:33:33;;;;;;;4.95;1.02;;;;;;;15.58;39.85;94134.63;5086448;28;20322;-80
2024/03/29 07:35:58;;;;;;;5.75;1.00;;;;;;;15.69;39.71;94137.63;5104450;28;20027;-81
2024/03/29 07:38:24;;;;;;;7.05;1.20;;;;;;;15.76;39.19;94140.59;5104554;28;20020;-80
2024/03/29 09:21:03;;;;;;;9.75;1.33;;;;;;;18.74;30.64;94054.06;5099837;27;20416;-84
2024/03/29 09:23:28;;;;;;;6.53;1.15;;;;;;;18.61;31.27;94060.81;5100106;28;20024;-85
2024/03/29 09:25:57;;;;;;;6.00;1.00;;;;;;;18.57;31.19;94057.25;5100100;28;20370;-84
2024/03/29 09:28:23;;;;;;;7.72;0.93;;;;;;;18.55;30.58;94059.53;5099806;28;20039;-84
2024/03/29 09:30:49;;;;;;;3.22;0.63;;;;;;;18.52;30.10;94055.63;5099801;28;20024;-84
2024/03/29 09:33:15;;;;;;;7.80;0.90;;;;;;;18.64;30.16;94041.97;5100064;28;20038;-85
2024/03/29 09:35:40;;;;;;;4.00;1.58;;;;;;;18.75;30.14;94036.75;5099608;28;20326;-85
2024/03/29 09:38:06;;;;;;;5.25;0.95;;;;;;;18.84;30.44;94036.53;5099959;28;20020;-84
2024/03/29 09:40:32;;;;;;;3.35;1.25;;;;;;;18.83;31.06;94037.69;5099645;28;20038;-82
2024/03/29 09:43:02;;;;;;;7.50;1.13;;;;;;;18.98;31.51;94031.34;5099571;28;20249;-81
2024/03/29 09:45:36;;;;;;;15.65;1.77;;;;;;;19.11;31.61;94037.34;5099341;28;20108;-83
2024/03/29 09:48:04;;;;;;;6.43;0.98;;;;;;;19.23;30.76;94023.66;5099322;28;20020;-82
2024/03/29 09:50:31;;;;;;;9.65;1.50;;;;;;;19.34;30.62;94025.72;5099105;28;20020;-81
2024/03/29 09:52:58;;;;;;;7.45;2.00;;;;;;;19.43;30.73;94008.06;5099575;28;20055;-81
2024/03/29 09:55:24;;;;;;;6.65;1.02;;;;;;;19.52;29.76;94013.22;5099516;28;20123;-81
2024/03/29 09:57:50;;;;;;;14.32;1.88;;;;;;;19.50;29.51;94002.00;5099365;28;20077;-82
2024/03/29 10:00:17;;;;;;;4.10;1.02;;;;;;;19.44;31.04;94012.34;5099614;28;20027;-81
2024/03/29 10:02:43;;;;;;;10.00;1.67;;;;;;;19.62;31.42;94011.78;5099507;28;20051;-82
2024/03/29 10:05:12;;;;;;;8.45;1.17;;;;;;;19.76;30.85;94016.63;5099233;28;20036;-82
2024/03/29 10:07:39;;;;;;;10.75;1.50;;;;;;;19.74;30.64;94006.22;5098966;28;20115;-83
2024/03/29 10:10:04;;;;;;;5.57;1.40;;;;;;;19.79;30.04;94011.28;5099220;28;20085;-85
2024/03/29 10:12:30;;;;;;;6.85;1.67;;;;;;;19.86;29.52;94009.81;5098924;28;20317;-83
2024/03/29 10:15:05;;;;;;;4.40;1.67;;;;;;;19.86;29.36;94009.81;5098728;28;20024;-83
2024/03/29 10:17:31;;;;;;;5.63;1.30;;;;;;;19.83;29.34;94004.00;5098917;28;20131;-81
2024/03/29 10:20:01;;;;;;;12.55;1.40;;;;;;;19.88;29.83;94004.81;5096280;28;20051;-82
2024/03/29 10:22:26;;;;;;;8.35;1.45;;;;;;;20.01;29.22;94006.16;5085044;28;20188;-81
2024/03/29 10:24:51;;;;;;;4.93;1.00;;;;;;;20.06;28.83;94000.38;5085230;28;20077;-82
2024/03/29 10:27:17;;;;;;;5.57;1.25;;;;;;;20.11;29.96;93999.28;5085310;28;20028;-82
2024/03/29 10:29:42;;;;;;;7.20;1.35;;;;;;;20.23;30.97;93999.81;5083742;28;20082;-82
2024/03/29 10:32:08;;;;;;;5.68;1.50;;;;;;;20.37;30.19;94010.00;5084985;28;20025;-82
2024/03/29 10:34:36;;;;;;;16.10;3.97;;;;;;;20.49;30.11;94003.53;5085047;28;20195;-82
2024/03/29 10:37:04;;;;;;;6.22;1.98;;;;;;;20.56;29.07;94006.31;5085214;28;20028;-82
2024/03/29 10:39:31;;;;;;;5.20;1.60;;;;;;;20.58;30.40;94009.47;5084857;28;20043;-86
2024/03/29 10:41:57;;;;;;;5.90;1.10;;;;;;;20.34;29.01;93999.16;5085061;28;20221;-84
2024/03/29 10:44:23;;;;;;;12.93;2.05;;;;;;;20.47;28.24;93997.72;5083645;28;20021;-85
2024/03/29 10:46:51;;;;;;;6.32;1.40;;;;;;;20.49;28.76;94000.06;5084898;28;20024;-86
2024/03/29 10:49:18;;;;;;;11.45;1.60;;;;;;;20.48;29.00;93999.28;5085187;28;20020;-85
2024/03/29 10:51:43;;;;;;;8.15;1.25;;;;;;;20.57;28.45;93994.31;5083685;28;20405;-85
2024/03/29 10:54:10;;;;;;;8.85;1.08;;;;;;;20.67;29.53;93989.41;5084834;28;20032;-86
2024/03/29 10:56:37;;;;;;;8.43;1.52;;;;;;;20.81;30.57;93979.47;5084704;28;20032;-85
2024/03/29 10:59:21;;;;;;;6.32;1.13;;;;;;;20.95;29.34;93980.75;5084301;28;20024;-85
2024/03/29 11:01:55;;;;;;;17.20;4.55;;;;;;;21.07;29.15;93974.25;5084773;28;20096;-85
2024/03/29 11:04:25;;;;;;;8.15;1.60;;;;;;;21.08;28.26;93981.22;5084505;28;20027;-84
2024/03/29 11:06:57;;;;;;;17.15;2.50;;;;;;;21.20;30.41;93976.25;5083426;28;20020;-86
2024/03/29 11:09:29;;;;;;;7.25;1.70;;;;;;;21.23;29.40;93978.22;5084357;28;20092;-85
2024/03/29 11:11:56;;;;;;;4.70;1.55;;;;;;;21.21;28.74;93979.78;5084214;28;20036;-86
2024/03/29 11:14:31;;;;;;;9.35;1.77;;;;;;;21.37;28.82;93971.31;5084248;28;20021;-82
2024/03/29 11:16:58;;;;;;;8.10;1.20;;;;;;;21.46;28.68;93962.91;5084081;28;20024;-84
2024/03/29 11:19:24;;;;;;;4.30;1.60;;;;;;;21.61;29.93;93961.78;5084015;28;20036;-85
2024/03/29 11:21:50;;;;;;;11.38;1.50;;;;;;;21.75;29.67;93963.78;5084318;28;20028;-84
2024/03/29 11:24:19;;;;;;;8.77;1.35;;;;;;;21.91;27.08;93968.91;5084170;28;20048;-83
2024/03/29 11:26:45;;;;;;;6.35;1.50;;;;;;;21.90;27.23;93961.91;5083988;28;20024;-83
2024/03/29 11:29:22;;;;;;;5.35;1.48;;;;;;;21.82;28.36;93972.75;5083934;28;20013;-85
2024/03/29 11:31:49;;;;;;;12.57;1.33;;;;;;;21.79;27.40;93959.94;5083114;28;20322;-84
2024/03/29 11:34:18;;;;;;;13.82;1.52;;;;;;;21.72;28.32;93961.88;5083585;28;20092;-84
2024/03/29 11:36:45;;;;;;;14.75;1.33;;;;;;;21.77;27.85;93970.38;5083635;28;20344;-84
2024/03/29 11:39:23;;;;;;;8.35;1.30;;;;;;;21.73;27.15;93966.13;5083684;28;20219;-83
2024/03/29 11:41:49;;;;;;;10.93;2.08;;;;;;;21.67;27.47;93962.97;5084041;28;20027;-83
2024/03/29 11:44:15;;;;;;;8.35;1.30;;;;;;;21.74;27.67;93954.88;5083543;28;20020;-86
2024/03/29 11:46:41;;;;;;;7.10;1.52;;;;;;;21.76;28.20;93966.13;5082390;28;20077;-83
2024/03/29 11:49:06;;;;;;;13.30;1.60;;;;;;;;;;5083542;28;20023;-83
2024/03/29 11:51:31;;;;;;;5.30;1.23;;;;;;;21.88;28.79;93956.88;5083614;28;20329;-84
2024/03/29 11:53:57;;;;;;;4.90;1.33;;;;;;;21.92;28.81;93951.44;5083564;28;20028;-83
2024/03/29 11:56:22;;;;;;;5.03;1.20;;;;;;;21.93;28.83;93953.00;5083564;28;20032;-83
2024/03/29 11:58:48;;;;;;;4.88;1.02;;;;;;;22.08;28.28;93954.59;5083416;28;20247;-83
2024/03/29 12:01:15;;;;;;;4.03;1.23;;;;;;;22.10;28.31;93952.28;5083122;28;20024;-84
2024/03/29 12:03:42;;;;;;;11.55;1.50;;;;;;;22.15;28.26;93946.47;5082928;28;20078;-83
2024/03/29 12:06:08;;;;;;;8.93;1.17;;;;;;;22.23;28.49;93939.13;5083227;28;20208;-86
2024/03/29 12:08:37;;;;;;;11.27;1.58;;;;;;;22.38;28.38;93939.97;5082818;28;20035;-84
2024/03/29 12:11:03;;;;;;;5.60;1.15;;;;;;;22.48;28.48;93938.41;5081670;28;20052;-83
2024/03/29 12:13:29;;;;;;;8.43;1.48;;;;;;;22.67;29.00;93940.75;5083005;28;20032;-83
2024/03/29 12:15:55;;;;;;;16.10;1.55;;;;;;;22.95;29.87;93939.19;5081705;28;20187;-84
2024/03/29 12:18:23;;;;;;;3.08;1.00;;;;;;;23.26;28.93;93943.03;5082961;28;20062;-83
2024/03/29 12:20:50;;;;;;;8.05;1.58;;;;;;;23.55;28.20;93937.53;5082714;28;20040;-84
2024/03/29 12:23:17;;;;;;;14.30;2.05;;;;;;;23.82;27.58;93949.50;5082705;28;20029;-82
2024/03/29 12:25:43;;;;;;;9.00;1.73;;;;;;;24.03;27.10;93934.25;5082447;28;20217;-85
2024/03/29 12:28:10;;;;;;;11.63;1.65;;;;;;;24.12;26.18;93940.03;5082569;28;20048;-83
2024/03/29 12:30:36;;;;;;;12.70;2.25;;;;;;;24.05;26.54;93945.50;5082693;28;20080;-83
2024/03/29 12:33:11;;;;;;;10.52;2.03;;;;;;;23.96;26.35;93942.47;5082585;28;20043;-83
2024/03/29 12:35:37;;;;;;;6.18;1.60;;;;;;;23.91;26.50;93938.19;5082668;28;20024;-83
2024/03/29 12:38:04;;;;;;;11.27;1.60;;;;;;;23.92;25.93;93937.03;5082635;28;20183;-83
2024/03/29 12:40:35;;;;;;;8.55;1.10;;;;;;;23.92;25.79;93939.75;5082647;28;20016;-84
2024/03/29 12:43:04;;;;;;;12.95;1.75;;;;;;;23.86;25.68;93940.56;5082383;28;20043;-84
2024/03/29 12:45:30;;;;;;;5.00;1.00;;;;;;;23.89;25.33;93934.31;5082568;28;20035;-84
2024/03/29 12:47:55;;;;;;;6.05;0.93;;;;;;;23.96;25.92;93926.91;5082544;28;20020;-83
2024/03/29 12:50:29;;;;;;;4.28;1.20;;;;;;;24.11;26.51;93927.59;5081336;28;20329;-83
2024/03/29 12:53:07;;;;;;;12.27;1.02;;;;;;;24.46;25.89;93925.03;5082638;28;20060;-84
2024/03/29 12:55:38;;;;;;;4.32;1.15;;;;;;;24.71;25.36;93927.59;5082337;28;20020;-84
2024/03/29 12:58:05;;;;;;;10.75;1.20;;;;;;;24.98;24.34;93930.50;5082656;28;20098;-83
2024/03/29 13:00:31;;;;;;;11.23;1.35;;;;;;;25.16;23.68;93920.19;5081388;28;20016;-83
2024/03/29 13:02:56;;;;;;;7.20;1.52;;;;;;;25.25;23.81;93922.47;5082291;28;20216;-83
2024/03/29 13:05:22;;;;;;;10.05;1.33;;;;;;;25.26;24.16;93918.59;5082439;28;20044;-83
2024/03/29 13:07:47;;;;;;;8.48;1.95;;;;;;;25.45;24.32;93919.16;5082469;28;20038;-81
2024/03/29 13:10:14;;;;;;;8.48;1.70;;;;;;;25.68;24.25;93916.53;5082231;28;20353;-81
2024/03/29 13:12:42;;;;;;;10.75;1.80;;;;;;;25.94;24.08;93915.06;5082464;28;20086;-81
2024/03/29 13:15:19;;;;;;;9.05;2.05;;;;;;;26.10;24.00;93905.53;5082277;28;20024;-82